Terminal Aerodrome Forecast
Issued by NWS

Home | Current Version | Previous Version | Text Only | Print | Product List | Glossary On
Versions: 1 2 3 4 5 6 7 8 9 10 11 12 13 14
000
FTUS43 KDDC 170100 AAA
TAFGCK
TAF AMD
KGCK 170112Z 1701/1724 03015KT P6SM BKN250
     FM170500 03010KT P6SM OVC100
     FM170800 02012KT 5SM -SHRA BKN050
     FM171700 10010KT P6SM SCT100=

USA.gov is the U.S. government's official web portal to all federal, state and local government web resources and services.